Terminal Aerodrome Forecast
Issued by NWS

Home | Current Version | Previous Version | Text Only | Print | Product List | Glossary On
Versions: 1 2 3 4 5 6 7 8 9 10 11 12 13 14 15 16 17
000
FTUS42 KMHX 210312 AAA
TAFOAJ
TAF AMD
KOAJ 210312Z 2103/2124 00000KT 5SM BR BKN070
      TEMPO 2103/2105 1SM BR BKN003
     FM210500 00000KT 1/2SM FG BKN003
     FM211300 VRB03KT 3SM BR BKN003
     FM211800 16005KT 4SM SHRA SCT005 BKN015
      AMD LTD TO CLD VIS AND WIND=

USA.gov is the U.S. government's official web portal to all federal, state and local government web resources and services.